createdAt,value
2022-07-27T00:00:50.696Z,1.50
2022-07-27T00:03:18.122Z,1.40
2022-07-27T00:05:45.294Z,1.30
2022-07-27T00:08:12.138Z,1.67
2022-07-27T00:10:39.114Z,1.70
2022-07-27T00:13:07.337Z,1.40
2022-07-27T00:15:34.681Z,1.43
2022-07-27T00:18:01.688Z,1.60
2022-07-27T00:20:29.412Z,1.80
2022-07-27T00:22:57.122Z,1.70
2022-07-27T00:25:24.941Z,1.40
2022-07-27T00:27:51.943Z,1.50
2022-07-27T00:30:20.380Z,1.60
2022-07-27T00:32:47.334Z,1.90
2022-07-27T00:35:14.253Z,1.63
2022-07-27T00:37:41.143Z,1.73
2022-07-27T00:40:09.375Z,1.90
2022-07-27T00:42:36.663Z,1.50
2022-07-27T00:45:04.423Z,1.90
2022-07-27T00:47:32.953Z,2.00
2022-07-27T00:50:00.259Z,1.80
2022-07-27T00:52:28.931Z,1.83
2022-07-27T00:54:56.637Z,1.90
2022-07-27T00:57:24.550Z,2.13
2022-07-27T00:59:51.555Z,1.97
2022-07-27T01:02:19.612Z,2.00
2022-07-27T01:04:53.624Z,1.90
2022-07-27T01:07:24.442Z,1.93
2022-07-27T01:09:56.986Z,1.90
2022-07-27T01:12:25.152Z,2.00
2022-07-27T01:14:52.536Z,2.27
2022-07-27T01:17:19.631Z,2.00
2022-07-27T01:19:47.009Z,2.20
2022-07-27T01:22:15.317Z,2.13
2022-07-27T01:24:42.429Z,2.13
2022-07-27T01:27:09.381Z,2.10
2022-07-27T01:29:37.121Z,2.43
2022-07-27T01:32:04.910Z,1.93
2022-07-27T01:34:33.582Z,2.13
2022-07-27T01:37:00.817Z,2.20
2022-07-27T01:39:29.617Z,2.10
2022-07-27T01:41:56.531Z,2.23
2022-07-27T01:44:23.468Z,2.10
2022-07-27T01:46:50.468Z,2.10
2022-07-27T01:49:17.926Z,2.30
2022-07-27T01:51:45.129Z,1.90
2022-07-27T01:54:12.363Z,2.23
2022-07-27T01:56:41.255Z,2.40
2022-07-27T01:59:08.330Z,2.40
2022-07-27T02:01:43.765Z,2.37
2022-07-27T02:04:10.743Z,2.23
2022-07-27T02:06:37.638Z,2.13
2022-07-27T02:09:04.655Z,2.40
2022-07-27T02:11:49.920Z,2.30
2022-07-27T02:14:18.175Z,2.10
2022-07-27T02:16:48.300Z,2.27
2022-07-27T02:19:17.194Z,2.30
2022-07-27T02:21:45.195Z,2.17
2022-07-27T02:24:12.134Z,2.33
2022-07-27T02:26:39.582Z,2.60
2022-07-27T02:29:06.446Z,2.20
2022-07-27T02:31:34.753Z,2.37
2022-07-27T02:34:01.706Z,2.50
2022-07-27T02:36:31.899Z,2.30
2022-07-27T02:38:59.039Z,2.47
2022-07-27T02:41:25.936Z,2.27
2022-07-27T02:43:52.804Z,2.43
2022-07-27T02:46:19.829Z,2.40
2022-07-27T02:48:48.220Z,2.30
2022-07-27T02:51:15.387Z,2.33
2022-07-27T02:53:42.656Z,2.30
2022-07-27T02:56:09.819Z,2.50
2022-07-27T02:58:36.858Z,2.70
2022-07-27T03:01:05.088Z,2.30
2022-07-27T03:03:33.868Z,2.63
2022-07-27T03:06:05.561Z,2.83
2022-07-27T03:08:32.494Z,2.40
2022-07-27T03:10:59.417Z,2.40
2022-07-27T03:13:26.731Z,2.30
2022-07-27T03:15:53.811Z,2.43
2022-07-27T03:18:21.001Z,2.60
2022-07-27T03:20:47.868Z,2.20
2022-07-27T03:23:17.977Z,2.80
2022-07-27T03:25:45.005Z,2.50
2022-07-27T03:28:11.941Z,2.60
2022-07-27T03:30:38.968Z,2.53
2022-07-27T03:33:06.506Z,2.50
2022-07-27T03:35:33.806Z,2.70
2022-07-27T03:38:00.758Z,2.50
2022-07-27T03:40:30.137Z,2.50
2022-07-27T03:42:57.121Z,2.30
2022-07-27T03:45:24.160Z,2.70
2022-07-27T03:47:51.193Z,2.47
2022-07-27T03:50:18.554Z,3.07
2022-07-27T03:52:45.912Z,2.70
2022-07-27T03:55:13.000Z,2.90
2022-07-27T03:57:41.330Z,3.10
2022-07-27T04:00:12.288Z,2.57
2022-07-27T04:02:39.561Z,2.60
2022-07-27T04:05:08.347Z,3.47
2022-07-27T04:07:35.187Z,2.83
2022-07-27T04:10:04.785Z,3.03
2022-07-27T04:12:31.795Z,2.80
2022-07-27T04:15:00.650Z,2.63
2022-07-27T04:17:55.421Z,3.20
2022-07-27T04:20:14.756Z,3.10
2022-07-27T04:22:41.769Z,3.10
2022-07-27T04:25:09.682Z,2.70
2022-07-27T04:27:36.834Z,2.80
2022-07-27T04:30:09.415Z,2.93
2022-07-27T04:32:37.361Z,2.83
2022-07-27T04:35:04.906Z,2.77
2022-07-27T04:37:32.228Z,2.73
2022-07-27T04:39:59.576Z,2.80
2022-07-27T04:42:26.581Z,2.90
2022-07-27T04:44:53.521Z,3.17
2022-07-27T04:47:21.822Z,3.13
2022-07-27T04:49:48.945Z,2.87
2022-07-27T04:52:16.242Z,3.17
2022-07-27T04:54:43.275Z,3.10
2022-07-27T04:57:10.212Z,3.03
2022-07-27T04:59:37.249Z,2.80
2022-07-27T05:02:04.439Z,3.10
2022-07-27T05:04:32.824Z,3.40
2022-07-27T05:06:59.902Z,3.20
2022-07-27T05:09:26.809Z,3.47
2022-07-27T05:11:53.688Z,3.20
2022-07-27T05:14:21.194Z,3.63
2022-07-27T05:16:48.805Z,3.20
2022-07-27T05:19:16.009Z,3.70
2022-07-27T05:21:44.357Z,3.63
2022-07-27T05:24:11.746Z,3.60
2022-07-27T05:26:38.769Z,3.67
2022-07-27T05:29:05.699Z,3.87
2022-07-27T05:31:32.655Z,3.33
2022-07-27T05:33:59.545Z,3.30
2022-07-27T05:36:26.904Z,3.80
2022-07-27T05:38:55.284Z,3.60
2022-07-27T05:41:23.522Z,3.80
2022-07-27T05:43:50.808Z,3.53
2022-07-27T05:46:17.934Z,3.60
2022-07-27T05:48:45.023Z,3.50
2022-07-27T05:51:11.993Z,3.40
2022-07-27T05:53:39.251Z,3.70
2022-07-27T05:56:10.396Z,3.23
2022-07-27T05:58:37.464Z,3.53
2022-07-27T06:01:04.552Z,3.20
2022-07-27T06:03:31.662Z,3.40
2022-07-27T06:06:17.613Z,3.60
2022-07-27T06:08:44.990Z,3.57
2022-07-27T06:11:14.399Z,3.33
2022-07-27T06:13:42.140Z,3.47
2022-07-27T06:16:10.181Z,3.60
2022-07-27T06:18:37.352Z,3.63
2022-07-27T06:21:04.663Z,4.00
2022-07-27T06:23:31.912Z,3.87
2022-07-27T06:25:58.899Z,3.70
2022-07-27T06:28:27.329Z,3.87
2022-07-27T06:30:54.216Z,3.57
2022-07-27T06:33:27.751Z,3.80
2022-07-27T06:35:57.189Z,3.43
2022-07-27T06:38:25.435Z,3.90
2022-07-27T06:40:52.960Z,3.70
2022-07-27T06:43:21.122Z,3.83
2022-07-27T06:45:49.977Z,3.93
2022-07-27T06:48:17.540Z,4.53
2022-07-27T06:50:44.891Z,3.97
2022-07-27T06:53:11.859Z,3.40
2022-07-27T06:55:39.081Z,3.33
2022-07-27T06:58:06.352Z,3.50
2022-07-27T07:00:33.838Z,3.77
2022-07-27T07:03:05.172Z,3.60
2022-07-27T07:05:34.736Z,3.73
2022-07-27T07:08:11.324Z,3.37
2022-07-27T07:10:39.630Z,3.70
2022-07-27T07:13:08.233Z,3.50
2022-07-27T07:15:36.534Z,3.13
2022-07-27T07:18:06.775Z,3.33
2022-07-27T07:20:34.652Z,3.50
2022-07-27T07:23:01.818Z,3.23
2022-07-27T07:25:29.327Z,4.17
2022-07-27T07:27:56.654Z,4.30
2022-07-27T07:30:24.057Z,4.10
2022-07-27T07:32:50.959Z,3.60
2022-07-27T07:35:19.297Z,3.73
2022-07-27T07:37:48.106Z,3.50
2022-07-27T07:40:42.231Z,3.70
2022-07-27T07:43:05.153Z,3.37
2022-07-27T07:45:34.868Z,3.50
2022-07-27T07:48:01.809Z,3.43
2022-07-27T07:50:30.129Z,3.50
2022-07-27T07:52:57.096Z,3.30
2022-07-27T07:55:26.121Z,3.33
2022-07-27T07:57:53.877Z,3.60
2022-07-27T08:00:22.108Z,3.40
2022-07-27T08:02:51.224Z,3.40
2022-07-27T08:05:19.238Z,3.50
2022-07-27T08:07:49.015Z,3.40
2022-07-27T08:10:17.623Z,3.50
2022-07-27T08:12:46.607Z,3.37
2022-07-27T08:15:14.822Z,3.03
2022-07-27T08:17:43.184Z,3.33
2022-07-27T08:20:12.005Z,3.20
2022-07-27T08:22:39.233Z,3.37
2022-07-27T08:25:09.096Z,3.20
2022-07-27T08:27:40.254Z,3.00
2022-07-27T08:30:09.243Z,3.43
2022-07-27T08:32:50.441Z,3.50
2022-07-27T08:35:18.936Z,3.60
2022-07-27T08:37:46.580Z,3.17
2022-07-27T08:43:05.244Z,3.40
2022-07-27T08:45:34.043Z,3.43
2022-07-27T08:48:01.276Z,3.20
2022-07-27T08:50:30.323Z,3.40
2022-07-27T08:53:00.319Z,3.00
2022-07-27T08:55:28.926Z,3.33
2022-07-27T08:58:02.226Z,3.50
2022-07-27T09:00:30.609Z,2.90
2022-07-27T09:02:58.132Z,3.10
2022-07-27T09:05:25.534Z,3.10
2022-07-27T09:07:55.230Z,3.67
2022-07-27T09:10:33.810Z,3.60
2022-07-27T09:13:15.847Z,3.13
2022-07-27T09:16:15.575Z,3.37
2022-07-27T09:18:34.745Z,3.63
2022-07-27T09:21:13.688Z,3.50
2022-07-27T09:23:43.388Z,3.10
2022-07-27T09:26:30.371Z,3.33
2022-07-27T09:29:01.178Z,3.23
2022-07-27T09:31:28.795Z,3.80
2022-07-27T09:33:58.240Z,3.00
2022-07-27T09:36:28.098Z,3.90
2022-07-27T09:39:01.666Z,3.63
2022-07-27T09:41:41.441Z,3.57
2022-07-27T09:46:55.853Z,3.03
2022-07-27T09:49:28.612Z,3.53
2022-07-27T09:52:00.039Z,2.90
2022-07-27T09:54:27.862Z,3.50
2022-07-27T09:57:01.174Z,3.20
2022-07-27T09:59:29.376Z,3.50
2022-07-27T10:01:57.518Z,3.13
2022-07-27T10:04:25.114Z,3.20
2022-07-27T10:07:02.681Z,3.13
2022-07-27T10:09:31.172Z,3.30
2022-07-27T10:12:00.302Z,3.30
2022-07-27T10:14:27.236Z,3.40
2022-07-27T10:16:56.198Z,3.40
2022-07-27T10:19:29.405Z,3.70
2022-07-27T10:21:56.395Z,3.67
2022-07-27T10:24:27.044Z,3.03
2022-07-27T10:26:55.313Z,3.00
2022-07-27T10:29:24.714Z,3.15
2022-07-27T10:31:59.930Z,3.00
2022-07-27T10:34:35.617Z,2.95
2022-07-27T10:37:10.894Z,3.30
2022-07-27T10:39:39.926Z,2.85
2022-07-27T10:42:28.544Z,3.08
2022-07-27T10:45:02.627Z,2.65
2022-07-27T10:47:35.968Z,2.67
2022-07-27T10:50:29.904Z,2.60
2022-07-27T10:53:02.869Z,2.75
2022-07-27T10:55:50.738Z,2.90
2022-07-27T10:58:43.361Z,2.50
2022-07-27T11:01:15.370Z,2.80
2022-07-27T11:03:47.401Z,2.83
2022-07-27T11:07:00.327Z,2.63
2022-07-27T11:11:55.974Z,2.92
2022-07-27T11:14:30.107Z,2.50
2022-07-27T11:17:39.974Z,2.70
2022-07-27T11:19:53.228Z,2.47
2022-07-27T11:22:35.109Z,2.33
2022-07-27T11:25:16.895Z,2.25
2022-07-27T11:27:47.190Z,2.40
2022-07-27T11:30:21.886Z,2.20
2022-07-27T11:32:50.275Z,1.92
2022-07-27T11:35:20.177Z,2.20
2022-07-27T11:37:58.352Z,2.00
2022-07-27T11:40:59.941Z,2.40
2022-07-27T11:43:15.614Z,2.20
2022-07-27T11:45:43.025Z,2.30
2022-07-27T11:48:17.590Z,2.00
2022-07-27T11:50:57.173Z,2.30
2022-07-27T11:53:24.549Z,2.10
2022-07-27T11:55:51.472Z,1.92
2022-07-27T11:58:18.527Z,2.40
2022-07-27T12:00:45.547Z,2.17
2022-07-27T12:03:20.965Z,2.25
2022-07-27T12:05:49.961Z,2.28
2022-07-27T12:08:17.618Z,2.30
2022-07-27T12:10:57.140Z,2.05
2022-07-27T12:13:32.256Z,2.40
2022-07-27T12:15:59.383Z,2.33
2022-07-27T12:18:41.099Z,1.90
2022-07-27T12:21:16.309Z,2.10
2022-07-27T12:23:50.820Z,1.75
2022-07-27T12:26:20.977Z,1.90
2022-07-27T12:29:05.224Z,1.80
2022-07-27T12:31:32.836Z,1.90
2022-07-27T12:34:06.349Z,1.83
2022-07-27T12:36:33.655Z,1.90
2022-07-27T12:39:00.763Z,2.10
2022-07-27T12:41:30.480Z,2.20
2022-07-27T12:44:08.065Z,2.10
2022-07-27T12:46:50.053Z,1.70
2022-07-27T12:49:22.600Z,1.83
2022-07-27T12:51:49.536Z,1.90
2022-07-27T12:54:16.978Z,1.77
2022-07-27T12:56:44.160Z,2.00
2022-07-27T12:59:11.389Z,1.92
2022-07-27T13:01:38.852Z,1.90
2022-07-27T13:04:05.966Z,1.75
2022-07-27T13:06:34.190Z,1.80
2022-07-27T13:09:01.073Z,1.65
2022-07-27T13:11:27.935Z,1.50
2022-07-27T13:13:54.817Z,1.67
2022-07-27T13:16:21.747Z,1.55
2022-07-27T13:18:48.915Z,1.70
2022-07-27T13:21:16.107Z,1.50
2022-07-27T13:23:46.468Z,1.85
2022-07-27T13:26:13.384Z,1.65
2022-07-27T13:28:40.398Z,1.80
2022-07-27T13:31:07.386Z,1.55
2022-07-27T13:33:34.448Z,1.80
2022-07-27T13:36:01.385Z,1.75
2022-07-27T13:38:28.699Z,1.70
2022-07-27T13:40:57.101Z,1.50
2022-07-27T13:43:24.069Z,1.63
2022-07-27T13:45:50.933Z,1.52
2022-07-27T13:48:18.135Z,2.00
2022-07-27T13:50:45.043Z,1.58
2022-07-27T13:53:15.136Z,1.60
2022-07-27T13:55:43.183Z,1.52
2022-07-27T13:58:14.645Z,1.75
2022-07-27T14:00:42.308Z,1.67
2022-07-27T14:03:11.288Z,1.50
2022-07-27T14:05:39.549Z,1.70
2022-07-27T14:08:12.402Z,1.60
2022-07-27T14:10:42.394Z,1.60
2022-07-27T14:13:12.743Z,1.73
2022-07-27T14:15:52.901Z,1.60
2022-07-27T14:18:26.114Z,1.70
2022-07-27T14:20:53.382Z,1.40
2022-07-27T14:23:20.403Z,1.60
2022-07-27T14:25:47.521Z,1.90
2022-07-27T14:28:16.207Z,1.50
2022-07-27T14:30:43.281Z,1.60
2022-07-27T14:33:10.208Z,1.60
2022-07-27T14:35:40.774Z,1.50
2022-07-27T14:38:08.304Z,1.60
2022-07-27T14:40:35.399Z,1.90
2022-07-27T14:43:02.345Z,1.67
2022-07-27T14:45:44.606Z,1.48
2022-07-27T14:48:21.091Z,1.42
2022-07-27T14:50:52.199Z,1.50
2022-07-27T14:53:19.141Z,1.45
2022-07-27T14:55:46.048Z,1.23
2022-07-27T14:58:13.110Z,1.52
2022-07-27T15:00:41.504Z,1.52
2022-07-27T15:03:08.462Z,1.65
2022-07-27T15:05:49.426Z,1.40
2022-07-27T15:08:18.398Z,1.70
2022-07-27T15:10:46.580Z,1.50
2022-07-27T15:13:14.611Z,1.70
2022-07-27T15:15:43.007Z,1.40
2022-07-27T15:18:10.088Z,1.40
2022-07-27T15:20:37.143Z,1.63
2022-07-27T15:23:04.362Z,1.60
2022-07-27T15:25:31.260Z,1.60
2022-07-27T15:27:58.351Z,1.60
2022-07-27T15:30:25.659Z,1.70
2022-07-27T15:32:53.885Z,1.52
2022-07-27T15:35:20.952Z,1.98
2022-07-27T15:37:54.124Z,1.40
2022-07-27T15:40:37.305Z,1.60
2022-07-27T15:43:04.581Z,1.60
2022-07-27T15:45:31.642Z,1.60
2022-07-27T15:48:00.002Z,1.42
2022-07-27T15:50:26.960Z,1.67
2022-07-27T15:52:53.921Z,1.50
2022-07-27T15:55:20.861Z,1.60
2022-07-27T15:57:47.765Z,1.48
2022-07-27T16:00:15.333Z,1.80
2022-07-27T16:02:42.399Z,1.60
2022-07-27T16:05:10.970Z,1.50
2022-07-27T16:07:41.509Z,1.63
2022-07-27T16:10:10.054Z,1.80
2022-07-27T16:12:38.563Z,1.63
2022-07-27T16:15:06.432Z,1.80
2022-07-27T16:17:33.361Z,1.60
2022-07-27T16:20:00.324Z,1.50
2022-07-27T16:22:30.167Z,1.80
2022-07-27T16:24:57.392Z,1.63
2022-07-27T16:27:24.371Z,1.73
2022-07-27T16:29:51.572Z,1.80
2022-07-27T16:32:18.672Z,1.60
2022-07-27T16:34:46.105Z,1.80
2022-07-27T16:37:13.014Z,1.60
2022-07-27T16:39:41.370Z,1.60
2022-07-27T16:42:08.317Z,1.63
2022-07-27T16:44:38.675Z,1.53
2022-07-27T16:47:06.981Z,1.80
2022-07-27T16:49:36.758Z,1.60
2022-07-27T16:52:04.329Z,1.57
2022-07-27T16:54:35.603Z,1.70
2022-07-27T16:57:07.677Z,1.70
2022-07-27T16:59:34.540Z,1.80
2022-07-27T17:02:01.485Z,1.63
2022-07-27T17:04:28.452Z,1.60
2022-07-27T17:06:55.755Z,1.67
2022-07-27T17:09:22.706Z,1.50
2022-07-27T17:11:50.406Z,1.43
2022-07-27T17:14:18.739Z,1.60
2022-07-27T17:16:51.794Z,1.50
2022-07-27T17:19:19.258Z,1.50
2022-07-27T17:21:46.318Z,1.40
2022-07-27T17:24:13.299Z,1.53
2022-07-27T17:26:40.289Z,1.60
2022-07-27T17:29:07.295Z,1.83
2022-07-27T17:31:35.726Z,1.40
2022-07-27T17:34:02.864Z,1.50
2022-07-27T17:36:29.859Z,1.60
2022-07-27T17:38:56.884Z,1.70
2022-07-27T17:41:25.389Z,1.63
2022-07-27T17:43:53.469Z,1.70
2022-07-27T17:46:21.047Z,1.50
2022-07-27T17:48:49.415Z,1.50
2022-07-27T17:51:16.467Z,1.43
2022-07-27T17:53:43.854Z,1.97
2022-07-27T17:56:11.620Z,1.80
2022-07-27T17:58:38.783Z,1.47
2022-07-27T18:01:06.755Z,1.40
2022-07-27T18:03:33.830Z,1.60
2022-07-27T18:06:02.613Z,1.40
2022-07-27T18:08:29.790Z,1.50
2022-07-27T18:10:56.766Z,1.60
2022-07-27T18:13:23.712Z,1.60
2022-07-27T18:16:08.035Z,1.43
2022-07-27T18:18:37.049Z,1.60
2022-07-27T18:21:06.109Z,1.70
2022-07-27T18:23:33.430Z,1.30
2022-07-27T18:26:00.404Z,1.40
2022-07-27T18:28:27.354Z,1.37
2022-07-27T18:30:55.379Z,1.40
2022-07-27T18:33:22.651Z,1.50
2022-07-27T18:35:49.823Z,1.40
2022-07-27T18:38:18.144Z,1.50
2022-07-27T18:40:46.798Z,1.40
2022-07-27T18:43:16.497Z,1.47
2022-07-27T18:45:43.665Z,1.40
2022-07-27T18:48:10.741Z,1.30
2022-07-27T18:50:39.568Z,1.40
2022-07-27T18:53:08.047Z,1.40
2022-07-27T18:55:36.555Z,1.30
2022-07-27T18:58:03.991Z,1.27
2022-07-27T19:00:31.373Z,1.43
2022-07-27T19:02:58.609Z,1.53
2022-07-27T19:05:32.214Z,1.50
2022-07-27T19:08:03.989Z,1.33
2022-07-27T19:10:30.909Z,1.33
2022-07-27T19:12:59.132Z,1.60
2022-07-27T19:15:26.163Z,1.60
2022-07-27T19:17:53.764Z,1.40
2022-07-27T19:20:20.831Z,1.27
2022-07-27T19:22:49.513Z,1.50
2022-07-27T19:25:16.974Z,1.57
2022-07-27T19:27:43.975Z,1.37
2022-07-27T19:30:12.765Z,1.50
2022-07-27T19:32:40.144Z,1.50
2022-07-27T19:35:08.296Z,1.60
2022-07-27T19:37:35.757Z,1.50
2022-07-27T19:40:20.096Z,1.43
2022-07-27T19:42:50.205Z,1.50
2022-07-27T19:45:18.547Z,1.60
2022-07-27T19:47:45.586Z,1.67
2022-07-27T19:50:14.084Z,1.43
2022-07-27T19:52:41.048Z,1.50
2022-07-27T19:55:08.769Z,1.60
2022-07-27T19:57:35.617Z,1.50
2022-07-27T20:00:04.136Z,1.50
2022-07-27T20:02:36.001Z,1.80
2022-07-27T20:05:03.384Z,1.70
2022-07-27T20:07:30.550Z,1.67
2022-07-27T20:09:57.573Z,1.67
2022-07-27T20:12:25.448Z,1.80
2022-07-27T20:14:52.559Z,1.43
2022-07-27T20:17:19.835Z,1.80
2022-07-27T20:19:48.137Z,1.40
2022-07-27T20:22:15.080Z,1.47
2022-07-27T20:24:42.196Z,1.57
2022-07-27T20:27:09.129Z,1.37
2022-07-27T20:29:36.153Z,1.70
2022-07-27T20:32:04.900Z,1.60
2022-07-27T20:34:31.910Z,1.47
2022-07-27T20:37:00.639Z,1.80
2022-07-27T20:39:27.661Z,1.53
2022-07-27T20:41:54.545Z,1.70
2022-07-27T20:44:21.520Z,1.53
2022-07-27T20:46:48.847Z,1.60
2022-07-27T20:49:17.014Z,1.57
2022-07-27T20:51:45.101Z,1.70
2022-07-27T20:54:13.871Z,1.43
2022-07-27T20:56:41.121Z,1.70
2022-07-27T20:59:09.047Z,1.53
2022-07-27T21:01:44.107Z,1.43
2022-07-27T21:04:11.065Z,1.50
2022-07-27T21:06:38.129Z,1.40
2022-07-27T21:09:05.222Z,1.83
2022-07-27T21:11:33.641Z,1.90
2022-07-27T21:14:01.112Z,1.80
2022-07-27T21:16:28.071Z,1.50
2022-07-27T21:18:55.102Z,1.70
2022-07-27T21:21:27.455Z,1.70
2022-07-27T21:24:14.178Z,1.60
2022-07-27T21:26:44.408Z,1.50
2022-07-27T21:29:12.271Z,1.60
2022-07-27T21:31:39.642Z,1.30
2022-07-27T21:34:07.243Z,1.60
2022-07-27T21:36:34.691Z,1.60
2022-07-27T21:39:01.621Z,1.80
2022-07-27T21:41:28.774Z,1.53
2022-07-27T21:43:57.076Z,1.53
2022-07-27T21:46:24.370Z,1.60
2022-07-27T21:48:51.316Z,1.50
2022-07-27T21:51:18.427Z,1.50
2022-07-27T21:53:46.566Z,1.43
2022-07-27T21:56:15.197Z,1.70
2022-07-27T21:58:45.137Z,1.53
2022-07-27T22:01:14.494Z,1.40
2022-07-27T22:03:41.700Z,1.60
2022-07-27T22:06:10.314Z,1.40
2022-07-27T22:08:37.768Z,1.53
2022-07-27T22:11:05.332Z,1.57
2022-07-27T22:13:32.683Z,1.63
2022-07-27T22:16:00.010Z,1.80
2022-07-27T22:18:28.867Z,1.57
2022-07-27T22:20:56.055Z,1.60
2022-07-27T22:23:23.139Z,1.60
2022-07-27T22:25:50.246Z,1.47
2022-07-27T22:28:17.506Z,1.80
2022-07-27T22:30:44.448Z,1.40
2022-07-27T22:33:32.750Z,1.63
2022-07-27T22:35:59.639Z,1.60
2022-07-27T22:38:28.100Z,1.50
2022-07-27T22:40:55.649Z,1.70
2022-07-27T22:43:22.555Z,1.63
2022-07-27T22:45:50.347Z,1.47
2022-07-27T22:48:17.343Z,1.57
2022-07-27T22:50:45.573Z,1.50
2022-07-27T22:53:13.046Z,1.67
2022-07-27T22:55:40.303Z,1.63
2022-07-27T22:58:07.334Z,1.80
2022-07-27T23:00:34.532Z,1.60
2022-07-27T23:03:01.857Z,1.80
2022-07-27T23:05:28.924Z,1.50
2022-07-27T23:07:57.231Z,1.67
2022-07-27T23:10:47.260Z,1.40
2022-07-27T23:13:14.976Z,1.60
2022-07-27T23:15:42.039Z,1.50
2022-07-27T23:18:09.393Z,1.53
2022-07-27T23:20:37.429Z,1.57
2022-07-27T23:23:15.416Z,1.77
2022-07-27T23:25:43.544Z,1.63
2022-07-27T23:28:10.919Z,1.40
2022-07-27T23:30:38.100Z,1.50
2022-07-27T23:33:05.202Z,1.40
2022-07-27T23:35:32.585Z,1.40
2022-07-27T23:38:00.286Z,1.87
2022-07-27T23:40:28.617Z,1.63
2022-07-27T23:42:55.545Z,1.33
2022-07-27T23:45:22.468Z,1.80
2022-07-27T23:47:49.357Z,1.43
2022-07-27T23:50:16.511Z,1.73
2022-07-27T23:52:43.441Z,1.80
2022-07-27T23:55:10.608Z,1.60
2022-07-27T23:57:38.900Z,1.50
